Time;durP1;ratioP1;P1;durP2;ratioP2;P2;SDS_P1;SDS_P2;PMS_P1;PMS_P2;Temp;Humidity;BMP_temperature;BMP_pressure;BME280_temperature;BME280_humidity;BME280_pressure;Samples;Min_cycle;Max_cycle;Signal;HPM_P1;HPM_P2
2020/01/30 00:02:15;;;;;;;1.58;1.39;;;;;;;19.14;38.99;100662.38;;;;-46
2020/01/30 00:05:15;;;;;;;2.07;1.39;;;;;;;19.11;39.02;100666.91;;;;-47
2020/01/30 00:08:14;;;;;;;1.75;1.40;;;;;;;19.10;39.05;100672.13;;;;-47
2020/01/30 00:11:14;;;;;;;1.45;1.35;;;;;;;19.08;39.04;100676.88;;;;-57
2020/01/30 00:14:14;;;;;;;1.56;1.45;;;;;;;19.05;39.01;100673.48;;;;-49
2020/01/30 00:17:14;;;;;;;2.01;1.40;;;;;;;19.05;39.00;100678.17;;;;-47
2020/01/30 00:20:14;;;;;;;1.56;1.33;;;;;;;19.04;39.02;100674.60;;;;-50
2020/01/30 00:23:15;;;;;;;1.61;1.40;;;;;;;19.01;39.01;100666.03;;;;-49
2020/01/30 00:26:14;;;;;;;1.57;1.29;;;;;;;19.00;38.98;100655.59;;;;-46
2020/01/30 00:29:15;;;;;;;1.90;1.40;;;;;;;18.99;38.98;100653.27;;;;-46
2020/01/30 00:32:14;;;;;;;1.67;1.34;;;;;;;18.98;38.96;100652.48;;;;-57
2020/01/30 00:35:14;;;;;;;1.45;1.35;;;;;;;18.97;39.02;100650.48;;;;-51
2020/01/30 00:38:14;;;;;;;1.33;1.23;;;;;;;18.94;38.96;100647.37;;;;-49
2020/01/30 00:41:14;;;;;;;1.84;1.36;;;;;;;18.93;39.02;100642.59;;;;-49
2020/01/30 00:47:18;;;;;;;1.98;1.43;;;;;;;18.89;39.00;100635.87;;;;-49
2020/01/30 00:50:15;;;;;;;1.60;1.40;;;;;;;18.89;39.00;100634.86;;;;-51
2020/01/30 00:53:14;;;;;;;1.72;1.39;;;;;;;18.88;38.93;100631.23;;;;-51
2020/01/30 00:56:14;;;;;;;1.46;1.36;;;;;;;18.85;38.95;100632.36;;;;-51
2020/01/30 00:59:14;;;;;;;1.83;1.41;;;;;;;18.85;39.00;100626.80;;;;-51
2020/01/30 01:02:14;;;;;;;1.39;1.29;;;;;;;18.82;39.02;100626.48;;;;-46
2020/01/30 01:05:15;;;;;;;1.53;1.40;;;;;;;18.81;39.02;100623.47;;;;-46
2020/01/30 01:08:15;;;;;;;1.87;1.39;;;;;;;18.80;39.07;100627.49;;;;-46
2020/01/30 01:11:15;;;;;;;1.97;1.40;;;;;;;18.78;39.08;100623.47;;;;-46
2020/01/30 01:14:14;;;;;;;1.45;1.30;;;;;;;18.78;39.04;100628.16;;;;-47
2020/01/30 01:17:14;;;;;;;1.47;1.32;;;;;;;18.76;39.08;100626.29;;;;-47
2020/01/30 01:20:14;;;;;;;2.31;1.37;;;;;;;18.74;39.07;100628.80;;;;-46
2020/01/30 01:23:14;;;;;;;2.40;1.37;;;;;;;18.72;39.07;100629.81;;;;-51
2020/01/30 01:26:14;;;;;;;1.61;1.46;;;;;;;18.72;39.12;100622.41;;;;-51
2020/01/30 01:29:14;;;;;;;1.31;1.21;;;;;;;18.70;39.09;100633.12;;;;-51
2020/01/30 01:32:15;;;;;;;1.40;1.30;;;;;;;18.69;39.10;100639.20;;;;-46
2020/01/30 01:35:14;;;;;;;1.40;1.30;;;;;;;18.68;39.15;100644.83;;;;-57
2020/01/30 01:38:14;;;;;;;1.53;1.39;;;;;;;18.67;39.16;100644.01;;;;-57
2020/01/30 01:41:14;;;;;;;1.62;1.30;;;;;;;18.66;39.18;100649.07;;;;-57
2020/01/30 01:44:14;;;;;;;1.46;1.35;;;;;;;18.64;39.18;100648.48;;;;-57
2020/01/30 01:47:15;;;;;;;1.40;1.30;;;;;;;18.63;39.18;100645.08;;;;-51
2020/01/30 01:50:15;;;;;;;1.63;1.50;;;;;;;18.62;39.20;100645.59;;;;-47
2020/01/30 01:53:15;;;;;;;1.76;1.37;;;;;;;18.61;39.21;100649.92;;;;-49
2020/01/30 01:56:14;;;;;;;1.40;1.30;;;;;;;18.60;39.19;100650.84;;;;-55
2020/01/30 01:59:14;;;;;;;1.41;1.23;;;;;;;18.59;39.17;100651.73;;;;-57
2020/01/30 02:02:14;;;;;;;1.42;1.32;;;;;;;18.58;39.19;100650.23;;;;-50
2020/01/30 02:05:14;;;;;;;1.37;1.26;;;;;;;18.58;39.20;100646.78;;;;-47
2020/01/30 02:08:14;;;;;;;1.76;1.43;;;;;;;18.55;39.24;100640.25;;;;-46
2020/01/30 02:11:14;;;;;;;1.59;1.40;;;;;;;18.55;39.24;100636.80;;;;-51
2020/01/30 02:14:14;;;;;;;1.45;1.33;;;;;;;18.54;39.23;100633.47;;;;-46
2020/01/30 02:17:14;;;;;;;1.31;1.21;;;;;;;18.53;39.24;100632.52;;;;-46
2020/01/30 02:20:14;;;;;;;2.01;1.49;;;;;;;18.51;39.23;100627.06;;;;-51
2020/01/30 02:23:14;;;;;;;1.69;1.31;;;;;;;18.51;39.25;100621.78;;;;-47
2020/01/30 02:26:14;;;;;;;1.53;1.29;;;;;;;18.49;39.25;100620.61;;;;-51
2020/01/30 02:31:05;;;;;;;1.86;1.35;;;;;;;18.47;39.24;100619.09;;;;-49
2020/01/30 02:34:14;;;;;;;1.40;1.30;;;;;;;18.46;39.23;100621.13;;;;-57
2020/01/30 02:37:14;;;;;;;1.75;1.40;;;;;;;18.45;39.25;100620.90;;;;-49
2020/01/30 02:40:14;;;;;;;1.51;1.40;;;;;;;18.43;39.32;100619.30;;;;-57
2020/01/30 02:43:14;;;;;;;1.62;1.48;;;;;;;18.42;39.32;100618.75;;;;-57
2020/01/30 02:46:14;;;;;;;1.40;1.30;;;;;;;18.41;39.33;100612.33;;;;-49
2020/01/30 02:49:14;;;;;;;1.45;1.33;;;;;;;18.40;39.27;100606.77;;;;-49
2020/01/30 02:52:14;;;;;;;1.50;1.39;;;;;;;18.39;39.25;100600.57;;;;-49
2020/01/30 02:55:14;;;;;;;1.73;1.25;;;;;;;18.39;39.22;100600.80;;;;-57
2020/01/30 02:58:15;;;;;;;1.46;1.35;;;;;;;18.37;39.28;100595.69;;;;-57
2020/01/30 03:01:14;;;;;;;1.95;1.30;;;;;;;18.36;39.27;100593.45;;;;-51
2020/01/30 03:04:14;;;;;;;1.81;1.40;;;;;;;18.35;39.28;100595.18;;;;-50
2020/01/30 03:07:14;;;;;;;2.01;1.30;;;;;;;18.35;39.28;100596.98;;;;-57
2020/01/30 03:10:14;;;;;;;1.41;1.31;;;;;;;18.34;39.27;100593.41;;;;-57
2020/01/30 03:13:14;;;;;;;1.49;1.36;;;;;;;18.33;39.30;100592.13;;;;-49
2020/01/30 03:16:15;;;;;;;1.73;1.40;;;;;;;18.32;39.31;100591.58;;;;-49
2020/01/30 03:19:14;;;;;;;1.99;1.42;;;;;;;18.32;39.33;100597.49;;;;-49
2020/01/30 03:22:14;;;;;;;1.48;1.27;;;;;;;18.29;39.35;100593.14;;;;-49
2020/01/30 03:25:14;;;;;;;1.39;1.29;;;;;;;18.30;39.30;100598.50;;;;-49
2020/01/30 03:28:14;;;;;;;1.43;1.23;;;;;;;18.29;39.36;100596.94;;;;-51
2020/01/30 03:31:14;;;;;;;1.52;1.37;;;;;;;18.27;39.36;100593.20;;;;-51
2020/01/30 03:34:14;;;;;;;1.53;1.38;;;;;;;18.26;39.37;100591.04;;;;-46
2020/01/30 03:37:27;;;;;;;1.48;1.38;;;;;;;18.26;39.35;100592.31;;;;-55
2020/01/30 03:45:14;;;;;;;1.67;1.32;;;;;;;18.24;39.37;100586.03;;;;-57
2020/01/30 03:48:14;;;;;;;1.45;1.35;;;;;;;18.22;39.39;100584.01;;;;-57
2020/01/30 03:51:14;;;;;;;1.65;1.41;;;;;;;18.21;39.38;100578.72;;;;-57
2020/01/30 03:54:14;;;;;;;1.40;1.30;;;;;;;18.21;39.37;100577.65;;;;-57
2020/01/30 03:57:14;;;;;;;1.53;1.40;;;;;;;18.20;39.39;100575.88;;;;-51
2020/01/30 04:00:14;;;;;;;1.38;1.20;;;;;;;18.19;39.38;100564.89;;;;-51
2020/01/30 04:03:14;;;;;;;1.40;1.30;;;;;;;18.19;39.39;100567.48;;;;-57
2020/01/30 04:06:14;;;;;;;1.46;1.33;;;;;;;18.18;39.38;100560.00;;;;-50
2020/01/30 04:09:14;;;;;;;1.53;1.41;;;;;;;18.17;39.39;100560.02;;;;-50
2020/01/30 04:12:14;;;;;;;1.34;1.24;;;;;;;18.17;39.40;100555.77;;;;-50
2020/01/30 04:15:14;;;;;;;1.68;1.46;;;;;;;18.15;39.40;100550.59;;;;-57
2020/01/30 04:18:14;;;;;;;1.50;1.40;;;;;;;18.15;39.39;100553.83;;;;-57
2020/01/30 04:21:14;;;;;;;1.41;1.31;;;;;;;18.13;39.40;100549.33;;;;-56
2020/01/30 04:24:14;;;;;;;1.50;1.40;;;;;;;18.13;39.39;100552.50;;;;-57
2020/01/30 04:27:14;;;;;;;1.56;1.36;;;;;;;18.11;39.40;100553.39;;;;-57
2020/01/30 04:30:14;;;;;;;1.39;1.29;;;;;;;18.10;39.42;100556.69;;;;-55
2020/01/30 04:33:14;;;;;;;1.37;1.27;;;;;;;18.10;39.48;100553.06;;;;-57
2020/01/30 04:36:15;;;;;;;1.81;1.42;;;;;;;18.08;39.41;100549.13;;;;-50
2020/01/30 04:39:14;;;;;;;1.38;1.28;;;;;;;18.08;39.41;100549.06;;;;-51
2020/01/30 04:42:14;;;;;;;1.49;1.39;;;;;;;18.09;39.45;100552.52;;;;-55
2020/01/30 04:45:14;;;;;;;1.40;1.30;;;;;;;18.08;39.44;100548.13;;;;-55
2020/01/30 04:48:14;;;;;;;1.47;1.37;;;;;;;18.09;39.44;100545.50;;;;-46
2020/01/30 04:51:14;;;;;;;1.68;1.40;;;;;;;18.10;39.45;100545.22;;;;-51
2020/01/30 04:54:14;;;;;;;1.43;1.31;;;;;;;18.11;39.45;100544.53;;;;-50
2020/01/30 04:57:16;;;;;;;1.69;1.28;;;;;;;18.12;39.41;100547.50;;;;-51
2020/01/30 05:00:58;;;;;;;1.41;1.29;;;;;;;18.15;39.42;100542.74;;;;-57
2020/01/30 05:04:05;;;;;;;1.55;1.39;;;;;;;18.18;39.43;100545.02;;;;-57
2020/01/30 05:07:23;;;;;;;1.43;1.28;;;;;;;18.22;39.41;100542.39;;;;-55
2020/01/30 05:10:14;;;;;;;1.49;1.37;;;;;;;18.26;39.43;100542.00;;;;-57
2020/01/30 05:13:14;;;;;;;1.50;1.40;;;;;;;18.29;39.38;100540.66;;;;-57
2020/01/30 05:16:14;;;;;;;1.46;1.36;;;;;;;18.33;39.36;100542.81;;;;-57
2020/01/30 05:19:14;;;;;;;1.40;1.30;;;;;;;18.38;39.36;100539.16;;;;-57
2020/01/30 05:22:14;;;;;;;1.47;1.35;;;;;;;18.42;39.34;100535.08;;;;-57
2020/01/30 05:25:15;;;;;;;1.55;1.45;;;;;;;18.46;39.44;100535.17;;;;-58
2020/01/30 05:28:14;;;;;;;1.45;1.30;;;;;;;18.49;39.39;100539.10;;;;-57
2020/01/30 05:31:14;;;;;;;1.40;1.30;;;;;;;18.54;39.41;100537.56;;;;-57
2020/01/30 05:34:14;;;;;;;1.30;1.20;;;;;;;18.58;39.46;100525.57;;;;-55
2020/01/30 05:37:14;;;;;;;1.31;1.21;;;;;;;18.63;39.42;100532.50;;;;-57
2020/01/30 05:40:14;;;;;;;1.49;1.39;;;;;;;18.64;39.33;100515.66;;;;-55
2020/01/30 05:43:14;;;;;;;1.19;1.11;;;;;;;18.67;39.38;100517.64;;;;-57
2020/01/30 05:46:14;;;;;;;1.64;1.43;;;;;;;18.71;39.40;100516.05;;;;-57
2020/01/30 05:49:14;;;;;;;1.40;1.30;;;;;;;18.72;39.41;100513.70;;;;-57
2020/01/30 05:52:14;;;;;;;1.52;1.40;;;;;;;18.76;39.37;100522.33;;;;-55
2020/01/30 05:55:14;;;;;;;1.33;1.23;;;;;;;18.81;39.44;100523.20;;;;-57
2020/01/30 05:58:14;;;;;;;1.31;1.21;;;;;;;18.84;39.36;100513.01;;;;-55
2020/01/30 06:01:15;;;;;;;1.59;1.11;;;;;;;18.70;38.20;100508.98;;;;-58
2020/01/30 06:07:22;;;;;;;3.78;2.75;;;;;;;17.68;37.37;100506.98;;;;-60
2020/01/30 06:10:25;;;;;;;5.31;2.58;;;;;;;18.01;37.78;100503.52;;;;-60
2020/01/30 06:13:14;;;;;;;3.60;2.49;;;;;;;18.17;38.25;100511.31;;;;-60
2020/01/30 06:16:14;;;;;;;6.02;2.25;;;;;;;18.28;38.16;100522.44;;;;-60
2020/01/30 06:19:14;;;;;;;3.93;2.33;;;;;;;18.36;38.20;100525.41;;;;-60
2020/01/30 06:22:14;;;;;;;2.80;2.05;;;;;;;18.42;38.27;100531.80;;;;-51
2020/01/30 06:25:14;;;;;;;4.03;2.13;;;;;;;18.48;38.27;100535.94;;;;-60
2020/01/30 06:28:15;;;;;;;3.61;2.19;;;;;;;18.51;38.31;100540.60;;;;-60
2020/01/30 06:31:14;;;;;;;4.05;2.07;;;;;;;18.56;38.31;100546.20;;;;-51
2020/01/30 06:34:14;;;;;;;3.53;1.97;;;;;;;18.58;38.33;100541.12;;;;-51
2020/01/30 06:37:14;;;;;;;2.51;2.01;;;;;;;18.59;38.32;100533.98;;;;-51
2020/01/30 06:40:14;;;;;;;2.83;1.99;;;;;;;18.61;38.37;100532.41;;;;-51
2020/01/30 06:43:14;;;;;;;2.70;1.99;;;;;;;18.62;38.36;100528.54;;;;-52
2020/01/30 06:46:14;;;;;;;2.47;1.90;;;;;;;18.62;38.42;100527.94;;;;-51
2020/01/30 06:49:14;;;;;;;3.00;1.94;;;;;;;18.62;38.46;100530.67;;;;-51
2020/01/30 06:52:14;;;;;;;2.25;1.89;;;;;;;18.62;38.48;100529.33;;;;-51
2020/01/30 06:55:14;;;;;;;2.73;1.84;;;;;;;18.62;38.47;100537.47;;;;-51
2020/01/30 06:58:14;;;;;;;2.27;1.87;;;;;;;18.62;38.49;100536.14;;;;-51
2020/01/30 07:01:14;;;;;;;2.73;2.07;;;;;;;18.63;38.52;100543.31;;;;-52
2020/01/30 07:04:14;;;;;;;2.38;1.87;;;;;;;18.62;38.53;100544.84;;;;-50
2020/01/30 07:07:14;;;;;;;2.28;1.90;;;;;;;18.62;38.57;100552.86;;;;-50
2020/01/30 07:15:25;;;;;;;2.12;1.85;;;;;;;18.61;38.62;100554.58;;;;-50
2020/01/30 07:18:14;;;;;;;2.16;1.83;;;;;;;18.60;38.66;100554.20;;;;-50
2020/01/30 07:21:17;;;;;;;2.40;1.86;;;;;;;18.59;38.66;100548.80;;;;-50
2020/01/30 07:24:14;;;;;;;2.61;2.00;;;;;;;18.58;38.63;100541.96;;;;-50
2020/01/30 07:27:14;;;;;;;2.27;1.85;;;;;;;18.58;38.71;100539.28;;;;-50
2020/01/30 07:30:17;;;;;;;2.25;1.81;;;;;;;18.58;38.69;100540.41;;;;-50
2020/01/30 07:33:14;;;;;;;2.11;1.91;;;;;;;18.57;38.73;100539.80;;;;-57
2020/01/30 07:36:14;;;;;;;2.50;1.80;;;;;;;18.56;38.72;100545.02;;;;-57
2020/01/30 07:39:14;;;;;;;1.95;1.73;;;;;;;18.55;38.70;100544.30;;;;-57
2020/01/30 07:42:14;;;;;;;2.34;1.80;;;;;;;18.54;38.70;100545.20;;;;-57
2020/01/30 07:45:14;;;;;;;2.75;1.97;;;;;;;18.53;38.67;100547.73;;;;-57
2020/01/30 07:48:14;;;;;;;7.81;1.91;;;;;;;18.53;39.18;100548.13;;;;-52
2020/01/30 07:51:14;;;;;;;4.56;1.93;;;;;;;18.55;39.44;100551.61;;;;-50
2020/01/30 07:54:14;;;;;;;2.39;1.87;;;;;;;18.57;39.49;100554.91;;;;-50
2020/01/30 07:57:14;;;;;;;2.59;1.87;;;;;;;18.59;39.68;100556.73;;;;-59
2020/01/30 08:00:14;;;;;;;2.65;1.92;;;;;;;18.61;39.84;100555.48;;;;-61
2020/01/30 08:03:14;;;;;;;3.25;1.86;;;;;;;18.67;39.64;100557.95;;;;-61
2020/01/30 08:06:14;;;;;;;2.22;1.65;;;;;;;18.71;39.64;100558.16;;;;-59
2020/01/30 08:09:14;;;;;;;2.05;1.74;;;;;;;18.76;39.72;100560.08;;;;-57
2020/01/30 08:12:14;;;;;;;1.98;1.70;;;;;;;18.84;40.04;100558.25;;;;-60
2020/01/30 08:15:14;;;;;;;2.41;1.79;;;;;;;18.90;39.95;100560.78;;;;-53
2020/01/30 08:18:14;;;;;;;2.05;1.80;;;;;;;18.96;40.05;100549.36;;;;-54
2020/01/30 08:21:14;;;;;;;2.47;1.80;;;;;;;19.02;40.16;100544.39;;;;-57
2020/01/30 08:24:14;;;;;;;2.23;1.74;;;;;;;19.06;40.06;100532.50;;;;-57
2020/01/30 08:27:14;;;;;;;2.07;1.70;;;;;;;19.10;39.77;100540.38;;;;-58
2020/01/30 08:30:14;;;;;;;3.37;1.89;;;;;;;19.15;39.81;100533.66;;;;-62
2020/01/30 08:33:14;;;;;;;2.28;1.65;;;;;;;19.15;39.35;100535.02;;;;-62
2020/01/30 08:36:14;;;;;;;7.39;2.14;;;;;;;19.22;39.79;100528.26;;;;-53
2020/01/30 08:39:14;;;;;;;3.63;1.87;;;;;;;19.28;40.25;100525.42;;;;-54
2020/01/30 08:42:14;;;;;;;1.97;1.77;;;;;;;19.33;40.47;100524.59;;;;-61
2020/01/30 08:45:14;;;;;;;3.07;1.80;;;;;;;19.36;40.08;100529.08;;;;-58
2020/01/30 08:48:14;;;;;;;4.53;1.87;;;;;;;19.42;40.11;100527.58;;;;-56
2020/01/30 08:51:14;;;;;;;3.00;1.79;;;;;;;19.47;40.63;100529.70;;;;-52
2020/01/30 08:54:14;;;;;;;7.66;1.71;;;;;;;19.51;40.64;100524.70;;;;-44
2020/01/30 08:57:14;;;;;;;3.22;1.69;;;;;;;19.52;40.38;100519.56;;;;-44
2020/01/30 09:00:14;;;;;;;1.95;1.65;;;;;;;19.53;39.99;100518.53;;;;-47
2020/01/30 09:03:14;;;;;;;2.93;1.81;;;;;;;19.53;39.89;100521.61;;;;-49
2020/01/30 09:06:14;;;;;;;3.66;2.08;;;;;;;19.52;39.69;100513.02;;;;-47
2020/01/30 09:09:14;;;;;;;4.52;1.95;;;;;;;19.51;39.54;100514.26;;;;-49
2020/01/30 09:12:14;;;;;;;4.83;1.82;;;;;;;19.51;39.15;100517.77;;;;-51
2020/01/30 09:15:14;;;;;;;3.65;1.87;;;;;;;19.53;39.60;100514.67;;;;-51
2020/01/30 09:18:14;;;;;;;3.67;1.85;;;;;;;19.54;39.37;100517.80;;;;-45
2020/01/30 09:21:15;;;;;;;4.84;2.00;;;;;;;19.55;39.53;100509.57;;;;-47
2020/01/30 09:24:14;;;;;;;3.41;1.77;;;;;;;19.58;39.96;100510.38;;;;-46
2020/01/30 09:27:14;;;;;;;2.46;1.80;;;;;;;19.63;40.40;100505.30;;;;-44
2020/01/30 09:30:14;;;;;;;2.89;1.93;;;;;;;19.65;40.63;100496.62;;;;-43
2020/01/30 09:33:14;;;;;;;4.83;1.80;;;;;;;19.69;40.22;100492.97;;;;-44
2020/01/30 09:36:14;;;;;;;2.97;1.89;;;;;;;19.67;39.97;100489.67;;;;-51
2020/01/30 09:39:14;;;;;;;3.09;1.79;;;;;;;19.69;39.88;100501.95;;;;-50
2020/01/30 09:42:14;;;;;;;2.43;1.83;;;;;;;19.69;39.53;100498.20;;;;-45
2020/01/30 09:45:14;;;;;;;2.77;1.62;;;;;;;19.71;40.08;100499.03;;;;-47
2020/01/30 09:48:16;;;;;;;3.17;1.70;;;;;;;19.72;39.89;100495.66;;;;-48
2020/01/30 09:51:15;;;;;;;2.01;1.78;;;;;;;19.75;39.64;100484.89;;;;-49
2020/01/30 09:54:14;;;;;;;2.45;1.75;;;;;;;19.76;39.63;100479.92;;;;-47
2020/01/30 09:57:15;;;;;;;3.57;1.69;;;;;;;19.79;39.81;100478.77;;;;-46
2020/01/30 10:00:15;;;;;;;3.12;1.79;;;;;;;19.80;39.90;100474.05;;;;-46
2020/01/30 10:03:15;;;;;;;3.26;1.77;;;;;;;19.82;39.50;100469.17;;;;-47
2020/01/30 10:06:14;;;;;;;3.56;1.73;;;;;;;19.85;39.50;100473.83;;;;-46
2020/01/30 10:09:15;;;;;;;2.65;1.62;;;;;;;19.88;39.81;100472.05;;;;-46
2020/01/30 10:12:14;;;;;;;2.81;1.69;;;;;;;19.87;39.63;100466.65;;;;-51
2020/01/30 10:15:14;;;;;;;1.86;1.64;;;;;;;19.90;39.22;100469.19;;;;-53
2020/01/30 10:18:14;;;;;;;2.00;1.61;;;;;;;19.91;39.47;100464.20;;;;-47
2020/01/30 10:21:14;;;;;;;2.25;1.59;;;;;;;19.92;39.30;100467.37;;;;-50
2020/01/30 10:24:14;;;;;;;1.83;1.71;;;;;;;19.94;39.54;100460.98;;;;-51
2020/01/30 10:27:14;;;;;;;2.99;1.60;;;;;;;19.96;39.69;100454.70;;;;-52
2020/01/30 10:30:14;;;;;;;2.41;1.50;;;;;;;19.96;39.39;100444.20;;;;-51
2020/01/30 10:33:14;;;;;;;2.37;1.71;;;;;;;19.95;39.65;100434.38;;;;-52
2020/01/30 10:36:14;;;;;;;6.85;1.72;;;;;;;19.93;39.07;100429.19;;;;-52
2020/01/30 10:39:14;;;;;;;1.58;1.48;;;;;;;19.92;39.14;100428.95;;;;-52
2020/01/30 10:42:14;;;;;;;1.61;1.51;;;;;;;19.91;39.14;100421.30;;;;-51
2020/01/30 10:45:14;;;;;;;2.58;1.61;;;;;;;19.91;39.21;100419.95;;;;-51
2020/01/30 10:48:14;;;;;;;3.51;1.63;;;;;;;19.90;39.13;100411.36;;;;-51
2020/01/30 10:51:14;;;;;;;1.81;1.49;;;;;;;19.89;39.14;100407.07;;;;-51
2020/01/30 10:54:14;;;;;;;3.86;1.65;;;;;;;19.89;39.04;100403.27;;;;-51
2020/01/30 10:57:14;;;;;;;1.77;1.60;;;;;;;19.89;39.06;100398.41;;;;-51
2020/01/30 11:00:14;;;;;;;2.09;1.52;;;;;;;19.88;38.99;100395.70;;;;-51
2020/01/30 11:03:14;;;;;;;2.20;1.55;;;;;;;19.88;38.97;100393.08;;;;-51
2020/01/30 11:06:14;;;;;;;1.97;1.50;;;;;;;19.88;38.92;100393.52;;;;-51
2020/01/30 11:09:14;;;;;;;1.84;1.56;;;;;;;19.87;38.92;100378.56;;;;-51
2020/01/30 11:12:14;;;;;;;2.06;1.60;;;;;;;19.86;38.86;100379.13;;;;-51
2020/01/30 11:15:14;;;;;;;3.37;1.57;;;;;;;19.89;39.04;100374.95;;;;-52
2020/01/30 11:18:14;;;;;;;2.13;1.45;;;;;;;19.90;39.00;100363.66;;;;-52
2020/01/30 11:21:14;;;;;;;1.63;1.50;;;;;;;19.92;39.08;100356.58;;;;-53
2020/01/30 11:24:14;;;;;;;1.79;1.47;;;;;;;19.94;38.96;100350.31;;;;-52
2020/01/30 11:27:14;;;;;;;4.76;1.63;;;;;;;19.94;39.11;100350.15;;;;-49
2020/01/30 11:30:14;;;;;;;2.41;1.45;;;;;;;19.94;38.91;100347.84;;;;-50
2020/01/30 11:33:14;;;;;;;2.57;1.50;;;;;;;19.94;38.79;100345.22;;;;-49
2020/01/30 11:36:14;;;;;;;1.51;1.36;;;;;;;19.95;38.90;100346.17;;;;-49
2020/01/30 11:39:14;;;;;;;1.63;1.41;;;;;;;19.94;38.69;100329.53;;;;-50
2020/01/30 11:42:14;;;;;;;2.35;1.50;;;;;;;19.94;38.72;100324.64;;;;-49
2020/01/30 11:45:14;;;;;;;1.76;1.53;;;;;;;19.94;38.77;100324.34;;;;-49
2020/01/30 11:48:14;;;;;;;2.25;1.56;;;;;;;19.94;38.74;100314.72;;;;-49
2020/01/30 11:51:14;;;;;;;2.29;1.50;;;;;;;19.94;38.65;100306.67;;;;-53
2020/01/30 11:54:14;;;;;;;1.73;1.42;;;;;;;19.95;38.67;100304.70;;;;-54
2020/01/30 11:57:14;;;;;;;2.23;1.35;;;;;;;19.94;38.71;100300.91;;;;-54
2020/01/30 12:00:15;;;;;;;2.67;1.47;;;;;;;19.94;38.61;100294.77;;;;-53
2020/01/30 12:03:14;;;;;;;1.91;1.37;;;;;;;19.94;38.61;100291.36;;;;-54
2020/01/30 12:06:14;;;;;;;2.23;1.34;;;;;;;19.94;38.60;100294.67;;;;-54
2020/01/30 12:09:14;;;;;;;1.49;1.39;;;;;;;19.93;38.60;100289.30;;;;-54
2020/01/30 12:12:14;;;;;;;1.50;1.40;;;;;;;19.94;38.59;100285.63;;;;-54
2020/01/30 12:15:14;;;;;;;2.03;1.41;;;;;;;19.93;38.65;100281.59;;;;-54
2020/01/30 12:18:14;;;;;;;1.40;1.30;;;;;;;19.92;38.55;100282.66;;;;-54
2020/01/30 12:21:15;;;;;;;1.41;1.31;;;;;;;19.93;38.51;100285.18;;;;-52
2020/01/30 12:24:14;;;;;;;5.75;1.55;;;;;;;19.96;39.18;100275.84;;;;-45
2020/01/30 12:27:14;;;;;;;5.23;1.57;;;;;;;19.99;39.13;100269.59;;;;-45
2020/01/30 12:30:14;;;;;;;2.48;1.33;;;;;;;19.98;39.23;100271.87;;;;-44
2020/01/30 12:33:14;;;;;;;2.56;1.39;;;;;;;19.98;39.20;100260.23;;;;-48
2020/01/30 12:36:14;;;;;;;4.23;1.49;;;;;;;19.99;39.29;100259.20;;;;-50
2020/01/30 12:39:14;;;;;;;2.29;1.51;;;;;;;19.99;39.52;100251.27;;;;-46
2020/01/30 12:42:14;;;;;;;1.82;1.35;;;;;;;20.00;39.52;100246.03;;;;-47
2020/01/30 12:45:14;;;;;;;3.92;1.50;;;;;;;20.02;39.77;100236.86;;;;-48
2020/01/30 12:48:15;;;;;;;1.85;1.39;;;;;;;20.02;39.65;100235.38;;;;-48
2020/01/30 12:51:15;;;;;;;2.31;1.40;;;;;;;20.03;40.05;100233.14;;;;-45
2020/01/30 12:54:14;;;;;;;3.73;1.58;;;;;;;20.05;39.96;100229.37;;;;-47
2020/01/30 12:57:14;;;;;;;2.89;1.41;;;;;;;20.06;39.92;100225.98;;;;-46
2020/01/30 13:00:14;;;;;;;3.47;1.33;;;;;;;20.08;39.98;100218.48;;;;-45
2020/01/30 13:03:14;;;;;;;5.41;1.40;;;;;;;20.08;39.95;100212.05;;;;-52
2020/01/30 13:06:14;;;;;;;3.16;1.40;;;;;;;20.12;40.50;100209.08;;;;-48
2020/01/30 13:09:14;;;;;;;1.81;1.41;;;;;;;20.14;40.28;100204.22;;;;-51
2020/01/30 13:12:14;;;;;;;2.27;1.40;;;;;;;20.13;39.75;100198.05;;;;-51
2020/01/30 13:15:14;;;;;;;3.06;1.49;;;;;;;20.13;39.30;100200.90;;;;-51
2020/01/30 13:18:14;;;;;;;2.27;1.30;;;;;;;20.10;39.17;100185.53;;;;-51
2020/01/30 13:21:14;;;;;;;2.51;1.38;;;;;;;20.10;39.15;100182.78;;;;-51
2020/01/30 13:24:15;;;;;;;17.99;2.46;;;;;;;20.11;39.63;100181.55;;;;-48
2020/01/30 13:27:14;;;;;;;5.54;1.61;;;;;;;20.12;39.49;100175.05;;;;-49
2020/01/30 13:30:14;;;;;;;6.73;1.77;;;;;;;20.11;39.12;100164.95;;;;-48
2020/01/30 13:33:14;;;;;;;2.65;1.47;;;;;;;20.11;38.85;100157.34;;;;-48
2020/01/30 13:36:14;;;;;;;7.39;1.77;;;;;;;20.09;38.67;100154.81;;;;-49
2020/01/30 13:39:14;;;;;;;4.96;1.50;;;;;;;20.10;38.31;100150.42;;;;-49
2020/01/30 13:42:14;;;;;;;3.05;1.53;;;;;;;20.10;38.52;100139.77;;;;-49
2020/01/30 13:47:42;;;;;;;4.53;1.62;;;;;;;20.10;38.43;100131.15;;;;-59
2020/01/30 13:50:42;;;;;;;5.49;1.71;;;;;;;20.11;38.50;100128.56;;;;-58
2020/01/30 13:53:42;;;;;;;5.01;1.67;;;;;;;20.11;38.06;100128.56;;;;-60
2020/01/30 13:56:42;;;;;;;4.24;1.61;;;;;;;20.12;38.20;100119.88;;;;-56
2020/01/30 13:59:42;;;;;;;2.82;1.55;;;;;;;20.12;38.29;100118.98;;;;-57
2020/01/30 14:02:42;;;;;;;4.77;1.64;;;;;;;20.12;38.03;100112.27;;;;-56
2020/01/30 14:05:43;;;;;;;2.86;1.50;;;;;;;20.14;38.54;100115.94;;;;-57
2020/01/30 14:08:42;;;;;;;2.79;1.41;;;;;;;20.12;38.21;100106.08;;;;-57
2020/01/30 14:11:42;;;;;;;3.35;1.44;;;;;;;20.14;38.52;100098.50;;;;-59
2020/01/30 14:14:42;;;;;;;2.29;1.50;;;;;;;20.13;38.69;100092.53;;;;-57
2020/01/30 14:17:42;;;;;;;2.97;1.57;;;;;;;20.14;38.45;100084.08;;;;-58
2020/01/30 14:20:42;;;;;;;1.94;1.55;;;;;;;20.14;38.46;100079.66;;;;-62
2020/01/30 14:23:42;;;;;;;2.94;1.73;;;;;;;20.14;38.31;100074.30;;;;-59
2020/01/30 14:26:42;;;;;;;2.09;1.56;;;;;;;20.14;38.54;100068.16;;;;-61
2020/01/30 14:29:42;;;;;;;2.59;1.70;;;;;;;20.13;38.65;100061.84;;;;-58
2020/01/30 14:32:42;;;;;;;2.47;1.67;;;;;;;20.13;38.21;100056.15;;;;-62
2020/01/30 14:35:42;;;;;;;2.44;1.75;;;;;;;20.14;38.50;100047.30;;;;-59
2020/01/30 14:38:42;;;;;;;2.12;1.57;;;;;;;20.14;38.32;100039.98;;;;-60
2020/01/30 14:41:42;;;;;;;3.27;1.50;;;;;;;20.14;38.29;100030.53;;;;-60
2020/01/30 14:44:42;;;;;;;2.11;1.50;;;;;;;20.15;38.39;100028.73;;;;-59
2020/01/30 14:47:42;;;;;;;3.59;1.45;;;;;;;20.14;38.29;100025.41;;;;-60
2020/01/30 14:50:42;;;;;;;2.83;1.60;;;;;;;20.14;38.31;100021.88;;;;-58
2020/01/30 14:53:42;;;;;;;1.68;1.39;;;;;;;20.13;38.37;100018.83;;;;-59
2020/01/30 14:56:42;;;;;;;1.90;1.50;;;;;;;20.13;38.33;100020.27;;;;-61
2020/01/30 14:59:42;;;;;;;2.15;1.54;;;;;;;20.14;38.42;100022.55;;;;-59
2020/01/30 15:02:42;;;;;;;4.74;1.50;;;;;;;20.16;38.63;100019.94;;;;-56
2020/01/30 15:05:42;;;;;;;3.49;1.39;;;;;;;20.18;39.20;100015.81;;;;-55
2020/01/30 15:08:42;;;;;;;3.19;1.37;;;;;;;20.18;39.21;100014.75;;;;-56
2020/01/30 15:11:42;;;;;;;3.19;1.40;;;;;;;20.21;39.72;100007.61;;;;-54
2020/01/30 15:14:42;;;;;;;1.51;1.40;;;;;;;20.21;39.00;100002.51;;;;-59
2020/01/30 15:17:42;;;;;;;2.06;1.40;;;;;;;20.24;39.57;100002.24;;;;-59
2020/01/30 15:20:42;;;;;;;2.15;1.40;;;;;;;20.25;39.46;99997.88;;;;-59
2020/01/30 15:23:42;;;;;;;3.63;1.40;;;;;;;20.27;39.58;99985.00;;;;-55
2020/01/30 15:26:42;;;;;;;1.75;1.35;;;;;;;20.27;39.59;99983.27;;;;-58
2020/01/30 15:29:42;;;;;;;2.27;1.45;;;;;;;20.28;39.73;99982.42;;;;-55
2020/01/30 15:32:42;;;;;;;1.47;1.30;;;;;;;20.28;39.66;99978.70;;;;-55
2020/01/30 15:35:42;;;;;;;2.55;1.33;;;;;;;20.28;39.40;99968.64;;;;-53
2020/01/30 15:38:42;;;;;;;2.45;1.50;;;;;;;20.30;39.56;99961.86;;;;-58
2020/01/30 15:41:42;;;;;;;1.61;1.49;;;;;;;20.31;39.22;99953.78;;;;-56
2020/01/30 15:44:42;;;;;;;2.24;1.39;;;;;;;20.32;39.31;99954.22;;;;-65
2020/01/30 15:47:42;;;;;;;2.45;1.41;;;;;;;20.33;39.37;99944.73;;;;-63
2020/01/30 15:50:42;;;;;;;1.97;1.49;;;;;;;20.33;39.27;99938.42;;;;-57
2020/01/30 15:53:42;;;;;;;1.75;1.47;;;;;;;20.33;39.41;99934.06;;;;-62
2020/01/30 15:56:42;;;;;;;1.77;1.39;;;;;;;20.33;39.30;99929.97;;;;-62
2020/01/30 15:59:42;;;;;;;1.65;1.50;;;;;;;20.36;39.43;99923.42;;;;-59
2020/01/30 16:02:42;;;;;;;6.23;1.68;;;;;;;20.34;39.18;99918.59;;;;-51
2020/01/30 16:05:42;;;;;;;4.10;1.79;;;;;;;20.33;38.72;99910.98;;;;-57
2020/01/30 16:08:42;;;;;;;4.61;1.94;;;;;;;20.32;38.36;99905.25;;;;-57
2020/01/30 16:11:42;;;;;;;3.47;2.14;;;;;;;20.31;38.93;99905.89;;;;-61
2020/01/30 16:14:42;;;;;;;2.85;2.00;;;;;;;20.29;38.49;99904.69;;;;-56
2020/01/30 16:17:42;;;;;;;5.03;2.18;;;;;;;20.30;38.91;99911.05;;;;-56
2020/01/30 16:20:42;;;;;;;3.23;2.21;;;;;;;20.28;38.88;99918.80;;;;-57
2020/01/30 16:23:42;;;;;;;3.55;2.06;;;;;;;20.28;38.83;99917.33;;;;-59
2020/01/30 16:26:42;;;;;;;2.85;2.18;;;;;;;20.27;38.57;99910.13;;;;-56
2020/01/30 16:29:42;;;;;;;6.25;2.10;;;;;;;20.29;39.16;99903.34;;;;-57
2020/01/30 16:32:42;;;;;;;2.75;1.97;;;;;;;20.31;39.21;99906.66;;;;-61
2020/01/30 16:35:42;;;;;;;3.94;1.89;;;;;;;20.34;39.29;99906.52;;;;-57
2020/01/30 16:38:42;;;;;;;3.66;1.80;;;;;;;20.35;39.22;99900.42;;;;-63
2020/01/30 16:41:42;;;;;;;3.60;2.00;;;;;;;20.34;38.83;99895.69;;;;-60
2020/01/30 16:44:42;;;;;;;5.17;2.07;;;;;;;20.34;39.00;99893.34;;;;-54
2020/01/30 16:47:42;;;;;;;3.36;2.05;;;;;;;20.37;39.22;99898.06;;;;-57
2020/01/30 16:53:48;;;;;;;2.55;1.78;;;;;;;20.37;38.82;99892.53;;;;-61
2020/01/30 16:56:42;;;;;;;2.39;1.67;;;;;;;20.40;39.29;99895.61;;;;-59
2020/01/30 16:59:42;;;;;;;2.75;1.80;;;;;;;20.40;39.01;99882.36;;;;-56
2020/01/30 17:02:42;;;;;;;4.13;1.97;;;;;;;20.42;39.42;99871.80;;;;-61
2020/01/30 17:05:42;;;;;;;2.97;1.85;;;;;;;20.42;39.05;99872.80;;;;-57
2020/01/30 17:08:42;;;;;;;4.35;2.11;;;;;;;20.43;39.37;99871.08;;;;-56